sensor_id;sensor_type;location;lat;lon;timestamp;temperature;humidity
23452;DHT22;11898;51.130;6.780;2023-10-19T00:04:41;13.60;99.90
23452;DHT22;11898;51.130;6.780;2023-10-19T00:07:10;13.40;99.90
23452;DHT22;11898;51.130;6.780;2023-10-19T00:09:41;13.40;99.90
23452;DHT22;11898;51.130;6.780;2023-10-19T00:12:11;13.50;99.90
23452;DHT22;11898;51.130;6.780;2023-10-19T00:14:41;13.80;99.90
23452;DHT22;11898;51.130;6.780;2023-10-19T00:17:10;13.50;99.90
23452;DHT22;11898;51.130;6.780;2023-10-19T00:19:39;13.60;99.90
23452;DHT22;11898;51.130;6.780;2023-10-19T00:22:10;13.60;99.90
23452;DHT22;11898;51.130;6.780;2023-10-19T00:24:40;13.70;99.90
23452;DHT22;11898;51.130;6.780;2023-10-19T00:27:09;13.90;99.90
23452;DHT22;11898;51.130;6.780;2023-10-19T00:29:45;13.50;99.90
23452;DHT22;11898;51.130;6.780;2023-10-19T00:32:17;13.50;99.90
23452;DHT22;11898;51.130;6.780;2023-10-19T00:34:47;13.80;99.90
23452;DHT22;11898;51.130;6.780;2023-10-19T00:37:39;14.00;99.90
23452;DHT22;11898;51.130;6.780;2023-10-19T00:40:11;13.80;99.90
23452;DHT22;11898;51.130;6.780;2023-10-19T00:42:44;14.00;99.90
23452;DHT22;11898;51.130;6.780;2023-10-19T00:45:14;13.80;99.90
23452;DHT22;11898;51.130;6.780;2023-10-19T00:47:43;13.80;99.90
23452;DHT22;11898;51.130;6.780;2023-10-19T00:50:14;13.80;99.90
23452;DHT22;11898;51.130;6.780;2023-10-19T00:55:16;13.80;99.90
23452;DHT22;11898;51.130;6.780;2023-10-19T00:57:47;13.70;99.90
23452;DHT22;11898;51.130;6.780;2023-10-19T01:00:17;13.90;99.90
23452;DHT22;11898;51.130;6.780;2023-10-19T01:03:03;13.90;99.90
23452;DHT22;11898;51.130;6.780;2023-10-19T01:05:33;13.90;99.90
23452;DHT22;11898;51.130;6.780;2023-10-19T01:08:05;14.20;99.90
23452;DHT22;11898;51.130;6.780;2023-10-19T01:10:35;14.20;99.90
23452;DHT22;11898;51.130;6.780;2023-10-19T01:13:04;14.20;99.90
23452;DHT22;11898;51.130;6.780;2023-10-19T01:15:33;14.30;99.90
23452;DHT22;11898;51.130;6.780;2023-10-19T01:18:04;14.00;99.90
23452;DHT22;11898;51.130;6.780;2023-10-19T01:20:34;14.20;99.90
23452;DHT22;11898;51.130;6.780;2023-10-19T01:23:08;14.10;99.90
23452;DHT22;11898;51.130;6.780;2023-10-19T01:26:01;14.20;99.90
23452;DHT22;11898;51.130;6.780;2023-10-19T01:28:29;14.30;99.90
23452;DHT22;11898;51.130;6.780;2023-10-19T01:31:23;14.10;99.90
23452;DHT22;11898;51.130;6.780;2023-10-19T01:34:04;14.30;99.90
23452;DHT22;11898;51.130;6.780;2023-10-19T01:36:36;14.20;99.90
23452;DHT22;11898;51.130;6.780;2023-10-19T01:39:09;14.20;99.90
23452;DHT22;11898;51.130;6.780;2023-10-19T01:44:09;14.20;99.90
23452;DHT22;11898;51.130;6.780;2023-10-19T01:46:40;14.20;99.90
23452;DHT22;11898;51.130;6.780;2023-10-19T01:49:10;14.20;99.90
23452;DHT22;11898;51.130;6.780;2023-10-19T01:51:39;14.30;99.90
23452;DHT22;11898;51.130;6.780;2023-10-19T01:54:10;14.40;99.90
23452;DHT22;11898;51.130;6.780;2023-10-19T01:59:09;14.40;99.90
23452;DHT22;11898;51.130;6.780;2023-10-19T02:01:37;14.40;99.90
23452;DHT22;11898;51.130;6.780;2023-10-19T02:04:08;14.50;99.90
23452;DHT22;11898;51.130;6.780;2023-10-19T02:06:37;14.50;99.90
23452;DHT22;11898;51.130;6.780;2023-10-19T02:12:15;14.70;99.90
23452;DHT22;11898;51.130;6.780;2023-10-19T02:14:46;14.90;99.90
23452;DHT22;11898;51.130;6.780;2023-10-19T02:19:43;14.80;99.90
23452;DHT22;11898;51.130;6.780;2023-10-19T02:22:12;14.70;99.90
23452;DHT22;11898;51.130;6.780;2023-10-19T02:24:40;14.90;99.90
23452;DHT22;11898;51.130;6.780;2023-10-19T02:27:10;14.50;99.90
23452;DHT22;11898;51.130;6.780;2023-10-19T02:29:40;14.70;99.90
23452;DHT22;11898;51.130;6.780;2023-10-19T02:32:10;14.60;99.90
23452;DHT22;11898;51.130;6.780;2023-10-19T02:34:38;14.80;99.90
23452;DHT22;11898;51.130;6.780;2023-10-19T02:37:07;14.80;99.90
23452;DHT22;11898;51.130;6.780;2023-10-19T02:39:36;14.70;99.90
23452;DHT22;11898;51.130;6.780;2023-10-19T02:42:05;14.70;99.90
23452;DHT22;11898;51.130;6.780;2023-10-19T02:44:36;14.70;99.90
23452;DHT22;11898;51.130;6.780;2023-10-19T02:47:06;14.80;99.90
23452;DHT22;11898;51.130;6.780;2023-10-19T02:49:37;14.90;99.90
23452;DHT22;11898;51.130;6.780;2023-10-19T02:52:07;14.70;99.90
23452;DHT22;11898;51.130;6.780;2023-10-19T02:54:38;14.70;99.90
23452;DHT22;11898;51.130;6.780;2023-10-19T02:57:08;14.70;99.90
23452;DHT22;11898;51.130;6.780;2023-10-19T02:59:38;14.60;99.90
23452;DHT22;11898;51.130;6.780;2023-10-19T03:02:07;14.70;99.90
23452;DHT22;11898;51.130;6.780;2023-10-19T03:04:37;14.90;99.90
23452;DHT22;11898;51.130;6.780;2023-10-19T03:07:07;14.80;99.90
23452;DHT22;11898;51.130;6.780;2023-10-19T03:09:37;14.80;99.90
23452;DHT22;11898;51.130;6.780;2023-10-19T03:12:07;14.90;99.90
23452;DHT22;11898;51.130;6.780;2023-10-19T03:14:41;14.80;99.90
23452;DHT22;11898;51.130;6.780;2023-10-19T03:17:09;14.80;99.90
23452;DHT22;11898;51.130;6.780;2023-10-19T03:19:38;14.80;99.90
23452;DHT22;11898;51.130;6.780;2023-10-19T03:22:07;14.80;99.90
23452;DHT22;11898;51.130;6.780;2023-10-19T03:24:37;14.90;99.90
23452;DHT22;11898;51.130;6.780;2023-10-19T03:27:13;14.90;99.90
23452;DHT22;11898;51.130;6.780;2023-10-19T03:29:51;15.00;99.90
23452;DHT22;11898;51.130;6.780;2023-10-19T03:32:24;14.90;99.90
23452;DHT22;11898;51.130;6.780;2023-10-19T03:35:04;15.00;99.90
23452;DHT22;11898;51.130;6.780;2023-10-19T03:37:35;15.00;99.90
23452;DHT22;11898;51.130;6.780;2023-10-19T03:40:04;15.40;99.90
23452;DHT22;11898;51.130;6.780;2023-10-19T03:45:10;15.00;99.90
23452;DHT22;11898;51.130;6.780;2023-10-19T03:47:41;15.00;99.90
23452;DHT22;11898;51.130;6.780;2023-10-19T03:50:12;14.80;99.90
23452;DHT22;11898;51.130;6.780;2023-10-19T03:52:43;14.90;99.90
23452;DHT22;11898;51.130;6.780;2023-10-19T03:55:13;14.80;99.90
23452;DHT22;11898;51.130;6.780;2023-10-19T03:57:46;15.10;99.90
23452;DHT22;11898;51.130;6.780;2023-10-19T04:00:17;15.10;99.90
23452;DHT22;11898;51.130;6.780;2023-10-19T04:02:51;15.20;99.90
23452;DHT22;11898;51.130;6.780;2023-10-19T04:05:22;15.20;99.90
23452;DHT22;11898;51.130;6.780;2023-10-19T04:07:51;15.20;99.90
23452;DHT22;11898;51.130;6.780;2023-10-19T04:10:39;15.20;99.90
23452;DHT22;11898;51.130;6.780;2023-10-19T04:13:18;15.00;99.90
23452;DHT22;11898;51.130;6.780;2023-10-19T04:15:47;15.10;99.90
23452;DHT22;11898;51.130;6.780;2023-10-19T04:18:19;15.20;99.90
23452;DHT22;11898;51.130;6.780;2023-10-19T04:20:47;15.20;99.90
23452;DHT22;11898;51.130;6.780;2023-10-19T04:23:18;15.00;99.90
23452;DHT22;11898;51.130;6.780;2023-10-19T04:25:50;15.20;99.90
23452;DHT22;11898;51.130;6.780;2023-10-19T04:28:19;15.20;99.90
23452;DHT22;11898;51.130;6.780;2023-10-19T04:30:49;15.00;99.90
23452;DHT22;11898;51.130;6.780;2023-10-19T04:33:18;15.20;99.90
23452;DHT22;11898;51.130;6.780;2023-10-19T04:35:47;15.40;99.90
23452;DHT22;11898;51.130;6.780;2023-10-19T04:38:18;15.10;99.90
23452;DHT22;11898;51.130;6.780;2023-10-19T04:40:47;15.20;99.90
23452;DHT22;11898;51.130;6.780;2023-10-19T04:43:16;15.30;99.90
23452;DHT22;11898;51.130;6.780;2023-10-19T04:45:45;15.20;99.90
23452;DHT22;11898;51.130;6.780;2023-10-19T04:48:13;15.30;99.90
23452;DHT22;11898;51.130;6.780;2023-10-19T04:50:42;15.30;99.90
23452;DHT22;11898;51.130;6.780;2023-10-19T04:53:11;15.20;99.90
23452;DHT22;11898;51.130;6.780;2023-10-19T04:55:40;15.40;99.90
23452;DHT22;11898;51.130;6.780;2023-10-19T04:58:09;15.40;99.90
23452;DHT22;11898;51.130;6.780;2023-10-19T05:00:38;15.30;99.90
23452;DHT22;11898;51.130;6.780;2023-10-19T05:03:07;15.40;99.90
23452;DHT22;11898;51.130;6.780;2023-10-19T05:05:35;15.40;99.90
23452;DHT22;11898;51.130;6.780;2023-10-19T05:08:06;15.40;99.90
23452;DHT22;11898;51.130;6.780;2023-10-19T05:10:34;15.50;99.90
23452;DHT22;11898;51.130;6.780;2023-10-19T05:13:04;15.40;99.90
23452;DHT22;11898;51.130;6.780;2023-10-19T05:15:32;15.60;99.90
23452;DHT22;11898;51.130;6.780;2023-10-19T05:18:05;15.40;99.90
23452;DHT22;11898;51.130;6.780;2023-10-19T05:20:33;15.40;99.90
23452;DHT22;11898;51.130;6.780;2023-10-19T05:23:06;15.50;99.90
23452;DHT22;11898;51.130;6.780;2023-10-19T05:25:36;15.40;99.90
23452;DHT22;11898;51.130;6.780;2023-10-19T05:28:05;15.50;99.90
23452;DHT22;11898;51.130;6.780;2023-10-19T05:30:36;15.30;99.90
23452;DHT22;11898;51.130;6.780;2023-10-19T05:33:04;15.50;99.90
23452;DHT22;11898;51.130;6.780;2023-10-19T05:35:33;15.40;99.90
23452;DHT22;11898;51.130;6.780;2023-10-19T05:38:04;15.50;99.90
23452;DHT22;11898;51.130;6.780;2023-10-19T05:40:33;15.70;99.90
23452;DHT22;11898;51.130;6.780;2023-10-19T05:43:05;15.40;99.90
23452;DHT22;11898;51.130;6.780;2023-10-19T05:45:35;15.40;99.90
23452;DHT22;11898;51.130;6.780;2023-10-19T05:48:05;15.60;99.90
23452;DHT22;11898;51.130;6.780;2023-10-19T05:50:35;15.60;99.90
23452;DHT22;11898;51.130;6.780;2023-10-19T05:53:04;15.60;99.90
23452;DHT22;11898;51.130;6.780;2023-10-19T05:55:33;15.60;99.90
23452;DHT22;11898;51.130;6.780;2023-10-19T06:00:35;15.50;99.90
23452;DHT22;11898;51.130;6.780;2023-10-19T06:03:06;15.70;99.90
23452;DHT22;11898;51.130;6.780;2023-10-19T06:05:34;15.60;99.90
23452;DHT22;11898;51.130;6.780;2023-10-19T06:08:03;15.90;99.90
23452;DHT22;11898;51.130;6.780;2023-10-19T06:10:32;15.70;99.90
23452;DHT22;11898;51.130;6.780;2023-10-19T06:13:01;15.70;99.90
23452;DHT22;11898;51.130;6.780;2023-10-19T06:15:31;15.80;99.90
23452;DHT22;11898;51.130;6.780;2023-10-19T06:18:00;15.80;99.90
23452;DHT22;11898;51.130;6.780;2023-10-19T06:20:29;15.70;99.90
23452;DHT22;11898;51.130;6.780;2023-10-19T06:22:58;15.90;99.90
23452;DHT22;11898;51.130;6.780;2023-10-19T06:25:34;16.00;99.90
23452;DHT22;11898;51.130;6.780;2023-10-19T06:28:03;15.60;99.90
23452;DHT22;11898;51.130;6.780;2023-10-19T06:30:32;15.70;99.90
23452;DHT22;11898;51.130;6.780;2023-10-19T06:33:01;15.70;99.90
23452;DHT22;11898;51.130;6.780;2023-10-19T06:35:32;15.70;99.90
23452;DHT22;11898;51.130;6.780;2023-10-19T06:38:01;15.80;99.90
23452;DHT22;11898;51.130;6.780;2023-10-19T06:40:33;15.80;99.90
23452;DHT22;11898;51.130;6.780;2023-10-19T06:43:04;15.90;99.90
23452;DHT22;11898;51.130;6.780;2023-10-19T06:45:33;15.70;99.90
23452;DHT22;11898;51.130;6.780;2023-10-19T06:48:02;15.50;99.90
23452;DHT22;11898;51.130;6.780;2023-10-19T06:50:32;15.90;99.90
23452;DHT22;11898;51.130;6.780;2023-10-19T06:53:02;15.80;99.90
23452;DHT22;11898;51.130;6.780;2023-10-19T06:55:33;15.70;99.90
23452;DHT22;11898;51.130;6.780;2023-10-19T06:58:03;15.90;99.90
23452;DHT22;11898;51.130;6.780;2023-10-19T07:00:32;15.70;99.90
23452;DHT22;11898;51.130;6.780;2023-10-19T07:03:02;15.80;99.90
23452;DHT22;11898;51.130;6.780;2023-10-19T07:05:33;16.00;99.90
23452;DHT22;11898;51.130;6.780;2023-10-19T07:08:21;15.80;99.90
23452;DHT22;11898;51.130;6.780;2023-10-19T07:10:50;15.90;99.90
23452;DHT22;11898;51.130;6.780;2023-10-19T07:13:19;15.90;99.90
23452;DHT22;11898;51.130;6.780;2023-10-19T07:15:49;16.10;99.90
23452;DHT22;11898;51.130;6.780;2023-10-19T07:18:19;15.80;99.90
23452;DHT22;11898;51.130;6.780;2023-10-19T07:20:48;15.90;99.90
23452;DHT22;11898;51.130;6.780;2023-10-19T07:23:17;16.10;99.90
23452;DHT22;11898;51.130;6.780;2023-10-19T07:25:48;15.80;99.90
23452;DHT22;11898;51.130;6.780;2023-10-19T07:28:19;15.90;99.90
23452;DHT22;11898;51.130;6.780;2023-10-19T07:30:48;15.90;99.90
23452;DHT22;11898;51.130;6.780;2023-10-19T07:33:19;16.00;99.90
23452;DHT22;11898;51.130;6.780;2023-10-19T07:35:49;16.00;99.90
23452;DHT22;11898;51.130;6.780;2023-10-19T07:38:26;16.00;99.90
23452;DHT22;11898;51.130;6.780;2023-10-19T07:40:56;16.10;99.90
23452;DHT22;11898;51.130;6.780;2023-10-19T07:43:25;16.00;99.90
23452;DHT22;11898;51.130;6.780;2023-10-19T07:48:23;16.10;99.90
23452;DHT22;11898;51.130;6.780;2023-10-19T07:50:52;16.20;99.90
23452;DHT22;11898;51.130;6.780;2023-10-19T07:53:21;16.00;99.90
23452;DHT22;11898;51.130;6.780;2023-10-19T07:55:52;16.20;99.90
23452;DHT22;11898;51.130;6.780;2023-10-19T07:58:20;16.20;99.90
23452;DHT22;11898;51.130;6.780;2023-10-19T08:00:49;16.30;99.90
23452;DHT22;11898;51.130;6.780;2023-10-19T08:03:18;16.40;99.90
23452;DHT22;11898;51.130;6.780;2023-10-19T08:05:47;16.40;99.90
23452;DHT22;11898;51.130;6.780;2023-10-19T08:08:16;16.50;99.90
23452;DHT22;11898;51.130;6.780;2023-10-19T08:10:45;16.80;99.90
23452;DHT22;11898;51.130;6.780;2023-10-19T08:13:15;16.80;99.90
23452;DHT22;11898;51.130;6.780;2023-10-19T08:15:43;17.00;99.90
23452;DHT22;11898;51.130;6.780;2023-10-19T08:18:12;17.20;99.90
23452;DHT22;11898;51.130;6.780;2023-10-19T08:20:43;17.40;99.90
23452;DHT22;11898;51.130;6.780;2023-10-19T08:23:13;17.50;99.90
23452;DHT22;11898;51.130;6.780;2023-10-19T08:25:42;17.60;99.90
23452;DHT22;11898;51.130;6.780;2023-10-19T08:28:13;17.70;99.90
23452;DHT22;11898;51.130;6.780;2023-10-19T08:30:43;17.40;99.90
23452;DHT22;11898;51.130;6.780;2023-10-19T08:33:14;17.50;99.90
23452;DHT22;11898;51.130;6.780;2023-10-19T08:35:43;17.70;99.90
23452;DHT22;11898;51.130;6.780;2023-10-19T08:38:12;17.50;99.90
23452;DHT22;11898;51.130;6.780;2023-10-19T08:40:41;17.60;99.90
23452;DHT22;11898;51.130;6.780;2023-10-19T08:43:09;17.50;99.90
23452;DHT22;11898;51.130;6.780;2023-10-19T08:45:40;17.60;99.90
23452;DHT22;11898;51.130;6.780;2023-10-19T08:48:10;17.70;99.90
23452;DHT22;11898;51.130;6.780;2023-10-19T08:50:39;17.80;99.90
23452;DHT22;11898;51.130;6.780;2023-10-19T08:53:09;17.70;99.90
23452;DHT22;11898;51.130;6.780;2023-10-19T08:55:40;17.80;99.90
23452;DHT22;11898;51.130;6.780;2023-10-19T08:58:11;17.80;99.90
23452;DHT22;11898;51.130;6.780;2023-10-19T09:03:34;17.90;99.90
23452;DHT22;11898;51.130;6.780;2023-10-19T09:06:04;18.10;99.90
23452;DHT22;11898;51.130;6.780;2023-10-19T09:08:33;18.10;99.90
23452;DHT22;11898;51.130;6.780;2023-10-19T09:11:09;18.20;99.90
23452;DHT22;11898;51.130;6.780;2023-10-19T09:13:49;18.50;99.90
23452;DHT22;11898;51.130;6.780;2023-10-19T09:19:09;19.20;99.90
23452;DHT22;11898;51.130;6.780;2023-10-19T09:21:38;19.70;99.90
23452;DHT22;11898;51.130;6.780;2023-10-19T09:24:07;20.10;99.90
23452;DHT22;11898;51.130;6.780;2023-10-19T09:26:37;20.40;99.90
23452;DHT22;11898;51.130;6.780;2023-10-19T09:29:06;20.60;99.90
23452;DHT22;11898;51.130;6.780;2023-10-19T09:31:35;20.90;99.90
23452;DHT22;11898;51.130;6.780;2023-10-19T09:34:05;21.10;99.90
23452;DHT22;11898;51.130;6.780;2023-10-19T09:36:38;21.10;99.90
23452;DHT22;11898;51.130;6.780;2023-10-19T09:39:08;21.10;99.90
23452;DHT22;11898;51.130;6.780;2023-10-19T09:41:39;21.10;99.90
23452;DHT22;11898;51.130;6.780;2023-10-19T09:44:11;21.10;99.90
23452;DHT22;11898;51.130;6.780;2023-10-19T09:46:42;21.20;99.90
23452;DHT22;11898;51.130;6.780;2023-10-19T09:49:12;21.40;99.90
23452;DHT22;11898;51.130;6.780;2023-10-19T09:51:42;21.70;99.90
23452;DHT22;11898;51.130;6.780;2023-10-19T09:54:17;22.00;99.90
23452;DHT22;11898;51.130;6.780;2023-10-19T09:56:50;22.20;99.90
23452;DHT22;11898;51.130;6.780;2023-10-19T09:59:35;22.50;99.90
23452;DHT22;11898;51.130;6.780;2023-10-19T10:02:15;22.70;99.90
23452;DHT22;11898;51.130;6.780;2023-10-19T10:04:46;22.80;99.90
23452;DHT22;11898;51.130;6.780;2023-10-19T10:07:15;22.90;99.90
23452;DHT22;11898;51.130;6.780;2023-10-19T10:09:46;22.70;99.90
23452;DHT22;11898;51.130;6.780;2023-10-19T10:12:18;22.60;99.90
23452;DHT22;11898;51.130;6.780;2023-10-19T10:15:01;22.40;99.90
23452;DHT22;11898;51.130;6.780;2023-10-19T10:17:38;22.20;99.90
23452;DHT22;11898;51.130;6.780;2023-10-19T10:22:45;21.70;99.90
23452;DHT22;11898;51.130;6.780;2023-10-19T10:25:28;21.70;99.90
23452;DHT22;11898;51.130;6.780;2023-10-19T10:27:58;21.50;99.90
23452;DHT22;11898;51.130;6.780;2023-10-19T10:30:27;21.40;99.90
23452;DHT22;11898;51.130;6.780;2023-10-19T10:32:56;21.40;99.90
23452;DHT22;11898;51.130;6.780;2023-10-19T10:38:19;21.40;99.90
23452;DHT22;11898;51.130;6.780;2023-10-19T10:40:49;21.40;99.90
23452;DHT22;11898;51.130;6.780;2023-10-19T10:43:22;21.30;99.90
23452;DHT22;11898;51.130;6.780;2023-10-19T10:49:08;21.10;99.90
23452;DHT22;11898;51.130;6.780;2023-10-19T10:58:05;20.80;99.90
23452;DHT22;11898;51.130;6.780;2023-10-19T11:00:52;20.70;99.90
23452;DHT22;11898;51.130;6.780;2023-10-19T11:03:34;20.70;99.90
23452;DHT22;11898;51.130;6.780;2023-10-19T11:06:26;21.20;99.90
